Colonie, NY

10:15 AM EST on January 27, 2015 (GMT -0500)
Schenectady County | Change Station
CLOSE
Current Station
Airport
Location: Schenectady,
Elevation: 377 ft
Nearby Weather Stations
Active Advisory: Winter Weather Advisory Active Notice: Public Information Statement

Elev 377 ft 42.85 °N, 73.93 °W | Updated 20 minutes ago

Snow
Snow
14 °F
Feels Like 4 °F
N
7
Wind Variable Wind from ENE

Today
High -- | Low -- °F
--% Chance of Precip.
Yesterday
High -- | Low -- °F
Precip. -- in
7:14 AM 5:01 PM
First Quarter, 55% visible
Pressure 29.84 in
Visibility 2.5 miles
Clouds Mostly Cloudy 2400 ft
Overcast 3300 ft
Windchill 4 °F
Dew Point 3 °F
Humidity 62%
Rainfall 0.00 in
Snow Depth Not available.
UV 1 out of 12
Pollen .10 out of 12
Air Quality Not available.
Flu Activity Not available.
METAR KSCH 271455Z 07006KT 2 1/2SM -SN BKN024 OVC033 M10/M16 A2984

More Conditions Fewer Conditions

Pressure 29.84 in
Visibility 2.5 miles
Clouds Mostly Cloudy 2400 ft
Overcast 3300 ft
Windchill 4 °F
Dew Point 3 °F
Humidity 62%
Rainfall 0.00 in
Snow Depth Not available.
UV 1 out of 12
Pollen .10 out of 12
Air Quality Not available.
Flu Activity Not available.
METAR KSCH 271455Z 07006KT 2 1/2SM -SN BKN024 OVC033 M10/M16 A2984

More Conditions Fewer Conditions

10-Day Weather Forecast

Almanac

Astronomy

Jan. 27, 2015 Rise Set
Actual Time
Civil Twilight
Nautical Twilight
Astronomical Twilight
Moon
Length of Visible Light
Length of Day
Tomorrow will be .
, % of the Moon is Illuminated

Today's Extremes

State Highs State Lows

Community

WunderPhotos

Upload Photos

1,790,676 photos uploaded!

WunderBlogs® & News

Nearby

Air Quality

  Air Quality AQ Index Pollutant
Not available.

Snow Depth

Station Depth Elevation

Earthquake Activity

City Distance Mag. Time & Date
Minimum magnitude displayed is 2.5.

Coastal Water Temperatures

Place Temperature

Nearby Weather Stations